メインページ
METAR-TAF:

METAR-TAF

空港 :

ロングイェールビーン, ノルウェー

緯度: 78-15N, 経度: 015-28E, 海抜: 2m

現時点の気象観測

当レポートは50分前の14:50(UTC)に作成
西/南西の風 14kt
気温 7°C
湿度 66%
気圧 1009 hPa
視程10km以上
高度2000ftの雲は散在している
高度6200ftの雲は散在している

METAR: ENSB 251450Z 25014KT 9999 SCT020 SCT062 07/01 Q1009 RMK WIND 1400FT 25010KT

時間: 17:40 (15:40 UTC)


TAF: 見つかりません

4,000以上の空港の気象観測と天気予報(METAR報とTAF報)

利用可能な観測所は地図上に黄色い丸と赤い丸で示す。

丸の上にカーソルを重ねると観測所名を参照できる。

次にクリックすると気象観測と天気予報を参照できる。

マップの切り替え:黒色「×」印の緑ボタンをクリックして拡大、「-」印の緑ボタンをクリックして縮小、緑色の三角印をクリックして隣りの地図に切り替え


METAR-TAF: